Lyndora, Pennsylvania
Current Conditions -  °F | °C
As of 12:15 AM on Saturday 29 Nov 2014 (Local Time) from KBTP Reporting Station
Overcast Overcast  
Wind Chill: 21°   Ceiling: 7500
Heat Index: 27°   Visibility: 10mi
Dew Point: 18°   Wind: 5mph
Humidity: 69%   Direction: 130°SE
Pressure: 30.17"   Gusts: NA
Location:  40.85°N, 79.93°W
Report Text: KBTP 290515Z AUTO 13004KT 10SM OVC075 M03/M08 A3017 RMK AO1
Loading
Personal Weather Stations






























Interactive Weather Map New forecast layout! Learn more

10-Day Weather Forecast

Advertisements
Track Severe Weather on mobile